Time;durP1;ratioP1;P1;durP2;ratioP2;P2;SDS_P1;SDS_P2;PMS_P1;PMS_P2;Temp;Humidity;BMP_temperature;BMP_pressure;BME280_temperature;BME280_humidity;BME280_pressure;Samples;Min_cycle;Max_cycle;Signal;HPM_P1;HPM_P2
2020/12/17 00:00:11;;;;;;;29.70;17.40;;;8.40;99.90;;;;;;5093952;28;20125;-67
2020/12/17 00:02:37;;;;;;;24.25;15.55;;;8.30;99.90;;;;;;5093401;28;20040;-67
2020/12/17 00:05:03;;;;;;;27.15;16.23;;;8.40;99.90;;;;;;5093970;28;20038;-67
2020/12/17 00:07:28;;;;;;;22.63;15.25;;;8.50;99.90;;;;;;5093686;28;20036;-67
2020/12/17 00:09:54;;;;;;;26.75;15.00;;;8.70;99.90;;;;;;5093878;28;20032;-67
2020/12/17 00:12:19;;;;;;;23.17;15.07;;;8.80;99.90;;;;;;5093879;28;20034;-67
2020/12/17 00:14:45;;;;;;;24.27;14.88;;;8.90;99.90;;;;;;5093812;28;20423;-67
2020/12/17 00:17:10;;;;;;;26.10;14.05;;;8.90;99.90;;;;;;5097185;28;20456;-67
2020/12/17 00:19:36;;;;;;;23.65;13.70;;;9.00;99.90;;;;;;5095950;28;20387;-67
2020/12/17 00:22:02;;;;;;;20.20;13.38;;;9.10;99.90;;;;;;5097183;28;20028;-67
2020/12/17 00:24:27;;;;;;;21.70;13.00;;;9.10;99.90;;;;;;5097408;28;20156;-67
2020/12/17 00:26:53;;;;;;;19.13;12.95;;;9.20;99.90;;;;;;5095836;28;20075;-67
2020/12/17 00:29:18;;;;;;;22.70;12.25;;;9.30;99.90;;;;;;5097568;28;20031;-67
2020/12/17 00:31:44;;;;;;;19.50;12.13;;;9.30;99.90;;;;;;5097263;28;20032;-67
2020/12/17 00:34:09;;;;;;;23.48;12.80;;;9.40;99.90;;;;;;5096753;28;20141;-67
2020/12/17 00:36:35;;;;;;;21.20;12.27;;;9.30;99.90;;;;;;5097401;28;20027;-67
2020/12/17 00:39:00;;;;;;;19.02;12.95;;;9.40;99.90;;;;;;5097131;28;20483;-67
2020/12/17 00:41:26;;;;;;;20.38;12.60;;;9.30;99.90;;;;;;5096793;28;20068;-67
2020/12/17 00:43:52;;;;;;;18.85;12.23;;;9.40;99.90;;;;;;5096131;28;20028;-67
2020/12/17 00:46:17;;;;;;;21.90;11.85;;;9.40;99.90;;;;;;5097247;28;20103;-67
2020/12/17 00:48:43;;;;;;;21.52;12.15;;;9.30;99.90;;;;;;5097213;28;20064;-67
2020/12/17 00:51:09;;;;;;;19.48;12.35;;;9.40;99.90;;;;;;5097153;28;20027;-68
2020/12/17 00:53:35;;;;;;;20.08;12.23;;;9.30;99.90;;;;;;5095875;28;20061;-67
2020/12/17 00:56:00;;;;;;;17.95;11.50;;;9.30;99.90;;;;;;5096800;28;20024;-67
2020/12/17 00:58:26;;;;;;;19.00;11.48;;;9.30;99.90;;;;;;5097008;28;20341;-67
2020/12/17 01:00:52;;;;;;;17.08;11.07;;;9.30;99.90;;;;;;5096951;28;20111;-67
2020/12/17 01:03:18;;;;;;;18.33;11.80;;;9.30;99.90;;;;;;5096937;28;20028;-67
2020/12/17 01:05:43;;;;;;;20.35;12.25;;;9.30;99.90;;;;;;5096622;28;20036;-67
2020/12/17 01:08:09;;;;;;;17.80;11.57;;;9.30;99.90;;;;;;5095010;28;20031;-67
2020/12/17 01:10:35;;;;;;;21.05;12.07;;;9.40;99.90;;;;;;5096792;28;20032;-67
2020/12/17 01:13:00;;;;;;;20.60;12.30;;;9.40;99.90;;;;;;5096694;28;20123;-67
2020/12/17 01:15:26;;;;;;;19.40;11.20;;;9.40;99.90;;;;;;5096391;28;20020;-67
2020/12/17 01:17:52;;;;;;;19.77;11.00;;;9.40;99.90;;;;;;5096656;28;20017;-67
2020/12/17 01:20:18;;;;;;;19.33;11.48;;;9.30;99.90;;;;;;5096596;28;20031;-67
2020/12/17 01:22:43;;;;;;;16.40;11.20;;;9.40;99.90;;;;;;5096011;28;20491;-67
2020/12/17 01:25:09;;;;;;;18.58;10.60;;;9.40;99.90;;;;;;5096524;28;20028;-68
2020/12/17 01:27:35;;;;;;;15.93;10.40;;;9.30;99.90;;;;;;5094948;28;20024;-68
2020/12/17 01:30:01;;;;;;;17.70;11.60;;;9.30;99.90;;;;;;5096448;28;20527;-67
2020/12/17 01:32:26;;;;;;;17.23;11.25;;;9.30;99.90;;;;;;5096373;28;20476;-67
2020/12/17 01:34:52;;;;;;;20.35;12.50;;;9.30;99.90;;;;;;5095823;28;20090;-67
2020/12/17 01:37:18;;;;;;;19.30;10.63;;;9.30;99.90;;;;;;5095761;28;20024;-67
2020/12/17 01:39:43;;;;;;;21.30;12.10;;;9.30;99.90;;;;;;5096238;28;20052;-67
2020/12/17 01:42:10;;;;;;;18.20;11.35;;;9.20;99.90;;;;;;5095623;28;20016;-67
2020/12/17 01:44:39;;;;;;;18.48;10.73;;;9.20;99.90;;;;;;5096134;28;20051;-67
2020/12/17 01:47:05;;;;;;;17.38;11.50;;;9.20;99.90;;;;;;5096089;28;20453;-67
2020/12/17 01:49:31;;;;;;;21.48;12.23;;;9.20;99.90;;;;;;5094613;28;20024;-67
2020/12/17 01:51:57;;;;;;;16.77;11.13;;;9.20;99.90;;;;;;5095923;28;20024;-67
2020/12/17 01:54:22;;;;;;;16.52;11.32;;;9.20;99.90;;;;;;5095327;28;20358;-67
2020/12/17 01:56:55;;;;;;;20.30;11.20;;;9.20;99.90;;;;;;5095896;28;20024;-67
2020/12/17 01:59:23;;;;;;;15.35;10.68;;;9.30;99.90;;;;;;5095327;28;20457;-67
2020/12/17 02:01:51;;;;;;;19.40;11.77;;;9.30;99.90;;;;;;5095796;28;20034;-67
2020/12/17 02:04:24;;;;;;;15.95;10.15;;;9.30;99.90;;;;;;5094304;28;20116;-67
2020/12/17 02:06:50;;;;;;;;;;;9.30;99.90;;;;;;5096451;28;20411;-67
2020/12/17 02:09:17;;;;;;;19.00;10.73;;;9.30;99.90;;;;;;5095133;28;19991;-67
2020/12/17 02:11:53;;;;;;;16.27;10.60;;;9.30;99.90;;;;;;5095600;28;20107;-67
2020/12/17 02:14:19;;;;;;;17.27;10.55;;;9.30;99.90;;;;;;5095189;28;20030;-67
2020/12/17 02:16:45;;;;;;;15.75;9.82;;;9.20;99.90;;;;;;5095532;28;20020;-67
2020/12/17 02:19:11;;;;;;;14.50;9.82;;;9.20;99.90;;;;;;5094331;28;20074;-67
2020/12/17 02:21:36;;;;;;;16.98;10.40;;;9.10;99.90;;;;;;5095119;28;20024;-67
2020/12/17 02:24:02;;;;;;;17.15;10.68;;;9.10;99.90;;;;;;5095078;28;20024;-67
2020/12/17 02:26:28;;;;;;;16.15;10.20;;;9.00;99.90;;;;;;5094117;28;20546;-67
2020/12/17 02:28:53;;;;;;;15.32;10.40;;;9.00;99.90;;;;;;5093481;28;20031;-67
2020/12/17 02:31:19;;;;;;;19.05;11.27;;;8.90;99.90;;;;;;5094270;28;20440;-67
2020/12/17 02:33:44;;;;;;;20.75;10.68;;;8.90;99.90;;;;;;5094508;28;20473;-67
2020/12/17 02:36:10;;;;;;;17.65;11.00;;;8.90;99.90;;;;;;5094598;28;20031;-67
2020/12/17 02:38:35;;;;;;;16.33;10.60;;;8.90;99.90;;;;;;5094086;28;20093;-67
2020/12/17 02:41:01;;;;;;;15.88;9.75;;;8.90;99.90;;;;;;5095067;28;20034;-67
2020/12/17 02:43:26;;;;;;;16.48;10.63;;;8.90;99.90;;;;;;5094417;28;20025;-67
2020/12/17 02:45:52;;;;;;;16.08;10.10;;;9.00;99.90;;;;;;5094690;28;20023;-67
2020/12/17 02:48:19;;;;;;;18.00;10.25;;;8.90;99.90;;;;;;5094642;28;20024;-67
2020/12/17 02:50:45;;;;;;;17.45;10.15;;;9.00;99.90;;;;;;5094878;28;20397;-68
2020/12/17 02:53:11;;;;;;;15.93;9.57;;;8.90;99.90;;;;;;5094495;28;20028;-68
2020/12/17 02:55:37;;;;;;;16.45;10.15;;;8.80;99.90;;;;;;5093628;28;20579;-67
2020/12/17 02:58:04;;;;;;;17.65;9.65;;;8.70;99.90;;;;;;5093330;28;20100;-67
2020/12/17 03:00:30;;;;;;;15.18;9.95;;;8.60;99.90;;;;;;5094454;28;20037;-68
2020/12/17 03:02:56;;;;;;;15.95;9.27;;;8.50;99.90;;;;;;5093247;28;20144;-67
2020/12/17 03:05:21;;;;;;;17.85;10.10;;;8.50;99.90;;;;;;5094667;28;20034;-67
2020/12/17 03:07:47;;;;;;;19.30;10.30;;;8.50;99.90;;;;;;5094046;28;20024;-68
2020/12/17 03:10:13;;;;;;;14.90;9.32;;;8.50;99.90;;;;;;5076457;28;20371;-67
2020/12/17 03:12:41;;;;;;;15.38;9.55;;;8.60;99.90;;;;;;5076132;28;20028;-67
2020/12/17 03:15:08;;;;;;;15.63;9.65;;;8.70;99.90;;;;;;5094460;28;20048;-67
2020/12/17 03:17:34;;;;;;;14.77;9.32;;;8.80;99.90;;;;;;5094156;28;20016;-67
2020/12/17 03:19:59;;;;;;;15.13;9.55;;;8.80;99.90;;;;;;5094442;28;20468;-67
2020/12/17 03:22:25;;;;;;;16.23;9.93;;;9.00;99.90;;;;;;5094413;28;20020;-68
2020/12/17 03:24:50;;;;;;;14.07;8.90;;;9.00;99.90;;;;;;5094379;28;20031;-67
2020/12/17 03:27:16;;;;;;;11.63;8.00;;;9.00;99.90;;;;;;5094326;28;20487;-67
2020/12/17 03:29:42;;;;;;;12.57;7.55;;;9.00;99.90;;;;;;5092605;28;20032;-67
2020/12/17 03:32:07;;;;;;;13.00;8.10;;;9.00;99.90;;;;;;5093732;28;20154;-67
2020/12/17 03:34:33;;;;;;;12.25;7.72;;;9.00;99.90;;;;;;5093556;28;20048;-67
2020/12/17 03:36:58;;;;;;;13.27;7.90;;;9.00;99.90;;;;;;5094243;28;20099;-67
2020/12/17 03:39:24;;;;;;;12.20;7.70;;;9.00;99.90;;;;;;5093911;28;20108;-67
2020/12/17 03:41:49;;;;;;;11.20;7.57;;;8.90;99.90;;;;;;5094203;28;20023;-67
2020/12/17 03:44:15;;;;;;;12.45;7.90;;;8.90;99.90;;;;;;5092308;28;20116;-67
2020/12/17 03:46:40;;;;;;;12.88;8.20;;;8.90;99.90;;;;;;5093889;28;20085;-67
2020/12/17 03:49:06;;;;;;;10.90;8.02;;;8.90;99.90;;;;;;5093134;28;20032;-67
2020/12/17 03:51:31;;;;;;;14.32;7.55;;;8.90;99.90;;;;;;5097106;28;20028;-67
2020/12/17 03:53:57;;;;;;;10.40;6.80;;;8.90;99.90;;;;;;5097892;28;20099;-67
2020/12/17 03:56:22;;;;;;;13.52;6.70;;;8.90;99.90;;;;;;5096770;28;20032;-67
2020/12/17 03:58:48;;;;;;;11.05;7.22;;;8.80;99.90;;;;;;5097627;28;20031;-67
2020/12/17 04:01:14;;;;;;;10.13;6.80;;;8.90;99.90;;;;;;5096701;28;20051;-67
2020/12/17 04:03:40;;;;;;;10.95;6.55;;;8.90;99.90;;;;;;5098059;28;20028;-67
2020/12/17 04:06:05;;;;;;;12.27;7.35;;;8.90;99.90;;;;;;5098083;28;20473;-67
2020/12/17 04:08:31;;;;;;;15.68;7.28;;;8.90;99.90;;;;;;5098028;28;20517;-67
2020/12/17 04:10:56;;;;;;;12.23;6.28;;;9.00;99.90;;;;;;5097966;28;20511;-67
2020/12/17 04:13:22;;;;;;;13.48;6.65;;;9.30;99.90;;;;;;5097854;28;20024;-67
2020/12/17 04:15:47;;;;;;;10.80;6.85;;;9.40;99.90;;;;;;5097891;28;20393;-67
2020/12/17 04:18:13;;;;;;;11.00;7.15;;;9.40;99.90;;;;;;5097535;28;20047;-67
2020/12/17 04:20:38;;;;;;;9.90;6.53;;;9.50;99.90;;;;;;5096805;28;20353;-67
2020/12/17 04:23:04;;;;;;;12.75;6.95;;;9.50;99.90;;;;;;5097692;28;20024;-67
2020/12/17 04:25:29;;;;;;;8.10;6.20;;;9.50;99.90;;;;;;5097424;28;20028;-67
2020/12/17 04:27:55;;;;;;;10.27;6.75;;;9.50;99.90;;;;;;5097597;28;20020;-67
2020/12/17 04:30:21;;;;;;;8.80;6.45;;;9.40;99.90;;;;;;5097564;28;20461;-67
2020/12/17 04:32:46;;;;;;;11.27;6.45;;;9.40;99.90;;;;;;5097297;28;20350;-68
2020/12/17 04:35:12;;;;;;;11.07;5.63;;;9.50;99.90;;;;;;5095945;28;20024;-68
2020/12/17 04:37:37;;;;;;;9.90;5.93;;;9.50;99.90;;;;;;5097455;28;20027;-67
2020/12/17 04:40:03;;;;;;;11.63;5.85;;;9.70;99.90;;;;;;5097401;28;20475;-67
2020/12/17 04:42:30;;;;;;;10.35;5.95;;;9.90;99.90;;;;;;5096805;28;20454;-67
2020/12/17 04:44:57;;;;;;;9.50;6.20;;;9.80;99.90;;;;;;5097305;28;20028;-67
2020/12/17 04:47:23;;;;;;;10.70;6.57;;;9.90;99.90;;;;;;5095803;28;20067;-67
2020/12/17 04:49:51;;;;;;;11.68;6.70;;;10.00;99.90;;;;;;5097199;28;20063;-67
2020/12/17 04:52:21;;;;;;;9.00;5.70;;;10.00;99.90;;;;;;5096896;28;20472;-67
2020/12/17 04:54:46;;;;;;;10.13;5.97;;;10.00;99.90;;;;;;5096780;28;20122;-67
2020/12/17 04:57:14;;;;;;;10.15;5.93;;;10.10;99.90;;;;;;5095638;28;20059;-67
2020/12/17 04:59:45;;;;;;;10.35;5.35;;;10.10;99.90;;;;;;5097034;28;20364;-67
2020/12/17 05:02:12;;;;;;;9.93;5.93;;;10.10;99.90;;;;;;5095988;28;20027;-67
2020/12/17 05:04:40;;;;;;;6.97;5.30;;;10.20;99.90;;;;;;5096380;28;20024;-67
2020/12/17 05:07:07;;;;;;;8.63;5.50;;;10.20;99.90;;;;;;5096893;28;20027;-67
2020/12/17 05:09:35;;;;;;;9.73;5.70;;;10.30;99.90;;;;;;5096862;28;20032;-67
2020/12/17 05:12:01;;;;;;;9.48;5.95;;;10.30;99.90;;;;;;5096801;28;20024;-67
2020/12/17 05:14:28;;;;;;;9.48;5.75;;;10.40;99.90;;;;;;5096401;28;20020;-67
2020/12/17 05:16:54;;;;;;;10.65;6.13;;;10.40;99.90;;;;;;5096461;28;20028;-68
2020/12/17 05:19:21;;;;;;;9.75;5.57;;;10.40;99.90;;;;;;5096667;28;20020;-67
2020/12/17 05:21:47;;;;;;;9.40;5.72;;;10.40;99.90;;;;;;5096626;28;20020;-67
2020/12/17 05:24:13;;;;;;;7.65;5.90;;;10.40;99.90;;;;;;5096300;28;20095;-67
2020/12/17 05:26:39;;;;;;;7.47;5.35;;;10.40;99.90;;;;;;5095989;28;20062;-67
2020/12/17 05:29:05;;;;;;;9.27;6.50;;;10.40;99.90;;;;;;5096480;28;20116;-67
2020/12/17 05:31:33;;;;;;;7.47;5.38;;;10.30;99.90;;;;;;5096148;28;20448;-67
2020/12/17 05:34:06;;;;;;;12.00;6.53;;;10.40;99.90;;;;;;5095817;28;20047;-67
2020/12/17 05:36:32;;;;;;;9.25;6.47;;;10.40;99.90;;;;;;5096064;28;20372;-67
2020/12/17 05:39:06;;;;;;;7.82;6.03;;;10.30;99.90;;;;;;5094815;28;20077;-67
2020/12/17 05:41:32;;;;;;;;;;;10.30;99.90;;;;;;5096686;28;20024;-67
2020/12/17 05:44:07;;;;;;;12.73;6.28;;;10.20;99.90;;;;;;5096221;28;20234;-67
2020/12/17 05:46:36;;;;;;;11.18;6.30;;;10.30;99.90;;;;;;5096128;28;20074;-67
2020/12/17 05:49:11;;;;;;;10.57;6.50;;;10.30;99.90;;;;;;5095539;28;20380;-66
2020/12/17 05:51:38;;;;;;;12.07;6.63;;;10.30;99.90;;;;;;5096045;28;20102;-66
2020/12/17 05:54:08;;;;;;;10.35;6.95;;;10.30;99.90;;;;;;5095913;28;20038;-67
2020/12/17 05:56:34;;;;;;;10.10;7.18;;;10.20;99.90;;;;;;5095631;28;20020;-66
2020/12/17 05:59:05;;;;;;;12.13;7.53;;;10.30;99.90;;;;;;5095591;28;20020;-66
2020/12/17 06:01:31;;;;;;;10.10;6.70;;;10.40;99.90;;;;;;5095566;28;20460;-66
2020/12/17 06:03:57;;;;;;;10.02;7.40;;;10.40;99.90;;;;;;5094499;28;20039;-66
2020/12/17 06:06:23;;;;;;;9.88;7.43;;;10.50;99.90;;;;;;5095186;28;20045;-66
2020/12/17 06:08:52;;;;;;;14.88;7.60;;;10.50;99.90;;;;;;5095117;28;20492;-66
2020/12/17 06:11:23;;;;;;;13.63;7.45;;;10.50;99.90;;;;;;5095609;28;20449;-66
2020/12/17 06:13:54;;;;;;;11.88;7.50;;;10.60;99.90;;;;;;5094430;28;20107;-66
2020/12/17 06:16:22;;;;;;;12.25;7.57;;;10.50;99.90;;;;;;5095565;28;20091;-66
2020/12/17 06:18:55;;;;;;;12.25;7.90;;;10.50;99.90;;;;;;5095466;28;20043;-66
2020/12/17 06:21:25;;;;;;;12.30;7.63;;;10.50;99.90;;;;;;5095157;28;20020;-66
2020/12/17 06:23:56;;;;;;;15.63;8.40;;;10.50;99.90;;;;;;5094222;28;20456;-66
2020/12/17 06:26:22;;;;;;;10.10;7.28;;;10.60;99.90;;;;;;5095323;28;20020;-66
2020/12/17 06:28:50;;;;;;;11.38;8.23;;;10.50;99.90;;;;;;5095218;28;20027;-66
2020/12/17 06:31:19;;;;;;;14.85;8.60;;;10.50;99.90;;;;;;5095237;28;20073;-67
2020/12/17 06:33:46;;;;;;;13.80;8.70;;;10.50;99.90;;;;;;5094425;28;20060;-66
2020/12/17 06:36:21;;;;;;;11.45;8.45;;;10.50;99.90;;;;;;5093684;28;20027;-66
2020/12/17 06:38:47;;;;;;;12.80;8.88;;;10.50;99.90;;;;;;5095093;28;20020;-66
2020/12/17 06:41:15;;;;;;;14.30;8.73;;;10.60;99.90;;;;;;5095064;28;20052;-67
2020/12/17 06:43:41;;;;;;;16.98;9.43;;;10.60;99.90;;;;;;5094462;28;20050;-67
2020/12/17 06:46:28;;;;;;;12.48;8.75;;;10.60;99.90;;;;;;5094116;28;20059;-64
2020/12/17 06:48:54;;;;;;;13.20;9.25;;;10.60;99.90;;;;;;5090705;28;20160;-67
2020/12/17 06:51:41;;;;;;;16.38;10.27;;;10.60;99.90;;;;;;5093779;28;20028;-67
2020/12/17 06:57:11;;;;;;;15.82;9.63;;;10.60;99.90;;;;;;5111102;27;20613;-68
2020/12/17 06:59:40;;;;;;;15.20;10.45;;;10.60;99.90;;;;;;5089705;28;20028;-67
2020/12/17 07:02:06;;;;;;;11.85;9.70;;;10.60;99.90;;;;;;5091236;28;20052;-68
2020/12/17 07:04:48;;;;;;;14.10;9.50;;;10.60;99.90;;;;;;5105929;28;20377;-67
2020/12/17 07:07:19;;;;;;;13.95;9.65;;;10.60;99.90;;;;;;5111789;28;20024;-67
2020/12/17 07:09:47;;;;;;;13.05;9.45;;;10.60;99.90;;;;;;5111293;28;20050;-67
2020/12/17 07:12:33;;;;;;;15.38;10.20;;;10.50;99.90;;;;;;5110516;28;20027;-67
2020/12/17 07:14:59;;;;;;;13.77;9.15;;;10.60;99.90;;;;;;5111159;28;20376;-67
2020/12/17 07:17:26;;;;;;;14.73;9.77;;;10.60;99.90;;;;;;5110736;28;20016;-67
2020/12/17 07:19:52;;;;;;;11.32;8.63;;;10.60;99.90;;;;;;5110293;28;20020;-67
2020/12/17 07:22:19;;;;;;;15.15;9.13;;;10.70;99.90;;;;;;5110713;28;20107;-68
2020/12/17 07:24:47;;;;;;;14.02;9.57;;;10.60;99.90;;;;;;5110585;28;20112;-67
2020/12/17 07:27:15;;;;;;;15.10;9.80;;;10.70;99.90;;;;;;5110686;28;20016;-67
2020/12/17 07:29:47;;;;;;;14.10;9.82;;;10.60;99.90;;;;;;5109942;28;20022;-67
2020/12/17 07:32:36;;;;;;;13.07;9.25;;;10.60;99.90;;;;;;5110696;28;20023;-67
2020/12/17 07:37:55;;;;;;;15.73;10.63;;;10.60;99.90;;;;;;5112148;27;20405;-66
2020/12/17 07:40:28;;;;;;;19.30;11.38;;;10.40;99.90;;;;;;5099342;28;20103;-68
2020/12/17 07:43:14;;;;;;;16.38;11.27;;;10.40;99.90;;;;;;5110108;28;20012;-68
2020/12/17 07:45:49;;;;;;;17.38;11.77;;;10.40;99.90;;;;;;5105962;28;20067;-67
2020/12/17 07:48:51;;;;;;;18.90;12.02;;;10.30;99.90;;;;;;5110720;28;20033;-68
2020/12/17 07:53:57;;;;;;;16.50;12.05;;;10.20;99.90;;;;;;5110673;27;20343;-69
2020/12/17 07:56:22;;;;;;;18.90;11.25;;;10.20;99.90;;;;;;5110863;28;20019;-67
2020/12/17 07:58:49;;;;;;;18.70;11.40;;;10.20;99.90;;;;;;5114057;28;20577;-68
2020/12/17 08:01:15;;;;;;;18.50;10.55;;;10.20;99.90;;;;;;5110537;28;20027;-67
2020/12/17 08:03:52;;;;;;;17.48;10.77;;;10.20;99.90;;;;;;5109755;28;20476;-68
2020/12/17 08:06:21;;;;;;;17.60;11.35;;;10.10;99.90;;;;;;5108932;28;20031;-68
2020/12/17 08:09:01;;;;;;;17.52;10.93;;;10.10;99.90;;;;;;5110879;28;20024;-68
2020/12/17 08:11:27;;;;;;;18.40;10.63;;;10.10;99.90;;;;;;5109387;28;20024;-68
2020/12/17 08:13:58;;;;;;;18.23;9.82;;;10.10;99.90;;;;;;5111463;28;20031;-68
2020/12/17 08:16:24;;;;;;;14.00;9.43;;;10.10;99.90;;;;;;5109568;28;20016;-69
2020/12/17 08:18:54;;;;;;;15.77;9.27;;;10.10;99.90;;;;;;5110526;28;20024;-68
2020/12/17 08:21:20;;;;;;;16.23;10.30;;;10.10;99.90;;;;;;5092289;28;20060;-68
2020/12/17 08:23:46;;;;;;;15.95;9.52;;;10.00;99.90;;;;;;5109565;28;20020;-68
2020/12/17 08:26:16;;;;;;;15.05;9.73;;;10.00;99.90;;;;;;5110313;28;20094;-67
2020/12/17 08:29:00;;;;;;;15.43;10.13;;;10.00;99.90;;;;;;5110683;28;20019;-68
2020/12/17 08:31:28;;;;;;;14.27;9.90;;;10.00;99.90;;;;;;5110192;28;20135;-69
2020/12/17 08:33:56;;;;;;;17.05;10.05;;;10.00;99.90;;;;;;5110541;28;20028;-68
2020/12/17 08:36:25;;;;;;;14.20;9.13;;;10.00;99.90;;;;;;5109958;28;20565;-68
2020/12/17 08:39:25;;;;;;;14.95;9.98;;;10.00;99.90;;;;;;5110466;28;20553;-67
2020/12/17 08:41:54;;;;;;;25.92;8.65;;;10.00;99.90;;;;;;5109355;28;20035;-67
2020/12/17 08:44:26;;;;;;;17.40;10.63;;;10.00;99.90;;;;;;5110329;28;20049;-69
2020/12/17 08:46:57;;;;;;;16.77;10.25;;;10.00;99.90;;;;;;5110879;28;20032;-68
2020/12/17 08:49:25;;;;;;;15.23;10.07;;;10.00;99.90;;;;;;5110212;28;20028;-67
2020/12/17 08:51:51;;;;;;;16.80;9.68;;;9.90;99.90;;;;;;5108564;28;20047;-67
2020/12/17 08:54:27;;;;;;;17.50;8.90;;;10.00;99.90;;;;;;5109777;28;20095;-68
2020/12/17 08:57:04;;;;;;;19.30;9.98;;;10.00;99.90;;;;;;5110278;28;20353;-67
2020/12/17 08:59:30;;;;;;;16.30;10.07;;;10.10;99.90;;;;;;5109618;28;20031;-68
2020/12/17 09:01:58;;;;;;;17.08;9.52;;;10.00;99.90;;;;;;5110051;28;20028;-68
2020/12/17 09:04:24;;;;;;;18.92;9.63;;;10.00;99.90;;;;;;5100227;28;20384;-68
2020/12/17 09:06:52;;;;;;;12.05;8.93;;;10.00;99.90;;;;;;5095728;28;20392;-68
2020/12/17 09:09:25;;;;;;;13.73;9.95;;;10.00;99.90;;;;;;5094999;28;20455;-68
2020/12/17 09:11:52;;;;;;;21.10;10.95;;;10.00;99.90;;;;;;5095730;28;20050;-68
2020/12/17 09:14:20;;;;;;;15.50;10.70;;;10.00;99.90;;;;;;5096142;28;20111;-68
2020/12/17 09:16:48;;;;;;;13.93;9.80;;;10.00;99.90;;;;;;5094667;28;20030;-68
2020/12/17 09:19:14;;;;;;;15.30;9.77;;;9.90;99.90;;;;;;5096047;28;20031;-68
2020/12/17 09:21:58;;;;;;;16.55;11.32;;;10.00;99.90;;;;;;5095721;28;20024;-70
2020/12/17 09:24:25;;;;;;;;;;;9.90;99.90;;;;;;5094307;28;20032;-70
2020/12/17 09:26:50;;;;;;;23.25;12.75;;;9.90;99.90;;;;;;5095379;28;19904;-71
2020/12/17 09:29:16;;;;;;;18.90;13.75;;;9.90;99.90;;;;;;5096015;28;20401;-71
2020/12/17 09:31:42;;;;;;;19.35;13.70;;;9.90;99.90;;;;;;5094952;28;20016;-70
2020/12/17 09:34:10;;;;;;;19.27;11.65;;;10.00;99.90;;;;;;5095730;28;20106;-70
2020/12/17 09:36:37;;;;;;;18.50;11.32;;;10.00;99.90;;;;;;5095664;28;20487;-69
2020/12/17 09:39:06;;;;;;;18.75;11.05;;;10.00;99.90;;;;;;5095713;28;20031;-70
2020/12/17 09:41:32;;;;;;;11.98;7.72;;;10.00;99.90;;;;;;5095157;28;20465;-70
2020/12/17 09:43:58;;;;;;;11.35;7.82;;;10.00;99.90;;;;;;5094939;28;20107;-70
2020/12/17 09:46:24;;;;;;;13.15;8.65;;;10.00;99.90;;;;;;5095399;28;20027;-70
2020/12/17 09:48:50;;;;;;;15.10;8.50;;;10.00;99.90;;;;;;5095558;28;20019;-70
2020/12/17 09:51:21;;;;;;;11.18;7.60;;;10.00;99.90;;;;;;5095467;28;20016;-70
2020/12/17 09:53:48;;;;;;;11.93;6.50;;;10.00;99.90;;;;;;5095303;28;20089;-70
2020/12/17 09:56:17;;;;;;;14.57;8.48;;;10.00;99.90;;;;;;5094976;28;20033;-70
2020/12/17 09:58:44;;;;;;;14.82;9.07;;;10.10;99.90;;;;;;5094713;28;20066;-70
2020/12/17 10:01:10;;;;;;;16.55;9.73;;;10.10;99.90;;;;;;5094579;28;20024;-71
2020/12/17 10:03:37;;;;;;;16.77;9.65;;;10.20;99.90;;;;;;5094870;28;20425;-70
2020/12/17 10:06:03;;;;;;;12.82;8.38;;;10.70;99.90;;;;;;5101031;28;20028;-70
2020/12/17 10:08:28;;;;;;;13.77;9.00;;;10.90;99.90;;;;;;5095765;28;20420;-70
2020/12/17 10:10:54;;;;;;;13.30;7.63;;;10.70;99.90;;;;;;5094686;28;20447;-71
2020/12/17 10:13:20;;;;;;;14.88;7.15;;;10.80;99.90;;;;;;5097817;28;20085;-71
2020/12/17 10:15:45;;;;;;;11.23;7.40;;;10.70;99.90;;;;;;5094006;28;20484;-70
2020/12/17 10:18:11;;;;;;;10.38;6.03;;;10.70;99.90;;;;;;5094398;28;20028;-70
2020/12/17 10:20:36;;;;;;;9.18;6.03;;;10.70;99.90;;;;;;5092491;28;20036;-70
2020/12/17 10:23:03;;;;;;;9.60;6.07;;;10.80;99.90;;;;;;5092679;28;20487;-70
2020/12/17 10:25:28;;;;;;;10.23;6.72;;;10.80;99.90;;;;;;5078901;28;20120;-70
2020/12/17 10:27:55;;;;;;;8.90;5.75;;;11.20;99.90;;;;;;5092714;28;20131;-70
2020/12/17 10:30:22;;;;;;;10.57;6.28;;;12.00;99.90;;;;;;5078543;28;20114;-70
2020/12/17 10:32:47;;;;;;;10.48;6.40;;;12.10;99.90;;;;;;5093220;28;20503;-70
2020/12/17 10:35:13;;;;;;;11.13;6.55;;;11.80;99.90;;;;;;5093443;28;20040;-70
2020/12/17 10:37:41;;;;;;;10.02;7.38;;;11.50;99.90;;;;;;5092958;28;20028;-71
2020/12/17 10:40:07;;;;;;;11.70;7.40;;;11.30;99.90;;;;;;5095559;28;20087;-70
2020/12/17 10:42:35;;;;;;;10.75;6.43;;;11.30;99.90;;;;;;5093815;28;20102;-70
2020/12/17 10:45:00;;;;;;;10.02;6.97;;;11.50;99.90;;;;;;5093810;28;20032;-72
2020/12/17 10:47:26;;;;;;;8.82;7.07;;;11.50;99.90;;;;;;5094023;28;20047;-73
2020/12/17 10:49:51;;;;;;;11.25;6.65;;;11.50;99.90;;;;;;5094227;28;20046;-72
2020/12/17 10:52:18;;;;;;;9.02;5.93;;;11.30;99.90;;;;;;5092698;28;20083;-72
2020/12/17 10:54:43;;;;;;;8.27;6.22;;;11.10;99.90;;;;;;5094250;28;20536;-72
2020/12/17 10:57:09;;;;;;;10.00;5.53;;;11.00;99.90;;;;;;5094231;28;20095;-74
2020/12/17 10:59:34;;;;;;;7.70;5.10;;;10.90;99.90;;;;;;5093745;28;20077;-74
2020/12/17 11:02:00;;;;;;;10.90;5.82;;;10.90;99.90;;;;;;5093641;28;20404;-74
2020/12/17 11:04:26;;;;;;;7.78;4.68;;;10.90;99.90;;;;;;5091601;28;20031;-74
2020/12/17 11:06:56;;;;;;;9.63;4.32;;;10.90;99.90;;;;;;5093457;28;20024;-74
2020/12/17 11:09:23;;;;;;;9.43;5.32;;;10.90;99.90;;;;;;5093590;28;20020;-74
2020/12/17 11:11:51;;;;;;;6.95;4.45;;;11.00;99.90;;;;;;5091843;28;20035;-74
2020/12/17 11:14:17;;;;;;;6.40;4.28;;;11.00;99.90;;;;;;5092866;28;20380;-74
2020/12/17 11:16:42;;;;;;;6.72;3.90;;;11.00;99.90;;;;;;5093779;28;20024;-74
2020/12/17 11:19:08;;;;;;;9.68;4.50;;;11.10;99.90;;;;;;5092557;28;20480;-74
2020/12/17 11:21:33;;;;;;;10.27;5.45;;;11.20;99.90;;;;;;5092400;28;20528;-74
2020/12/17 11:23:59;;;;;;;6.93;3.85;;;11.30;99.90;;;;;;5092915;28;20377;-74
2020/12/17 11:26:24;;;;;;;6.30;3.58;;;11.30;99.90;;;;;;5093231;28;20012;-74
2020/12/17 11:28:50;;;;;;;4.60;3.17;;;11.30;99.90;;;;;;5092242;28;20031;-72
2020/12/17 11:31:16;;;;;;;6.63;2.97;;;11.40;99.90;;;;;;5092850;28;20461;-72
2020/12/17 11:33:41;;;;;;;6.28;2.90;;;11.30;99.90;;;;;;5090865;28;20024;-72
2020/12/17 11:36:07;;;;;;;6.07;2.60;;;11.20;99.90;;;;;;5092102;28;20369;-72
2020/12/17 11:38:32;;;;;;;7.30;3.20;;;11.10;99.90;;;;;;5092457;28;20431;-72
2020/12/17 11:40:58;;;;;;;7.32;3.53;;;11.00;99.90;;;;;;5092827;28;20024;-72
2020/12/17 11:43:23;;;;;;;11.55;4.10;;;11.00;99.90;;;;;;5092849;28;20468;-72
2020/12/17 11:45:49;;;;;;;7.20;2.90;;;11.00;99.90;;;;;;5093342;28;20050;-72
2020/12/17 11:48:14;;;;;;;6.28;2.80;;;11.00;99.90;;;;;;5091933;28;20536;-72
2020/12/17 11:50:40;;;;;;;5.85;2.90;;;11.00;99.90;;;;;;5091932;28;20093;-72
2020/12/17 11:53:06;;;;;;;12.77;2.90;;;10.90;99.90;;;;;;5091068;28;20067;-72
2020/12/17 11:55:31;;;;;;;5.18;3.08;;;10.90;99.90;;;;;;5093081;28;20016;-72
2020/12/17 11:57:57;;;;;;;4.25;2.85;;;10.90;99.90;;;;;;5091464;28;20044;-72
2020/12/17 12:00:22;;;;;;;6.40;3.17;;;10.90;99.90;;;;;;5091594;28;20024;-72
2020/12/17 12:02:50;;;;;;;6.63;2.80;;;10.90;99.90;;;;;;5091642;28;20084;-72
2020/12/17 12:05:17;;;;;;;6.65;2.72;;;10.90;99.90;;;;;;5092023;28;20023;-72
2020/12/17 12:07:43;;;;;;;5.15;2.30;;;11.00;99.90;;;;;;5093229;28;20572;-72
2020/12/17 12:10:09;;;;;;;7.30;2.40;;;11.00;99.90;;;;;;5093168;28;20070;-72
2020/12/17 12:12:34;;;;;;;6.95;2.40;;;11.10;99.90;;;;;;5092085;28;20047;-72
2020/12/17 12:15:00;;;;;;;5.97;2.70;;;11.00;99.90;;;;;;5091122;28;20061;-74
2020/12/17 12:17:26;;;;;;;10.68;3.13;;;11.00;99.90;;;;;;5092998;28;20016;-74
2020/12/17 12:19:51;;;;;;;4.60;2.88;;;11.00;99.90;;;;;;5093167;28;20432;-74
2020/12/17 12:22:17;;;;;;;5.32;2.75;;;11.00;99.90;;;;;;5092904;28;20031;-74
2020/12/17 12:24:42;;;;;;;7.15;2.95;;;11.00;99.90;;;;;;5093161;28;20024;-73
2020/12/17 12:27:08;;;;;;;7.13;2.53;;;11.00;99.90;;;;;;5091957;28;20420;-72
2020/12/17 12:29:33;;;;;;;5.45;2.40;;;11.00;99.90;;;;;;5093119;28;20042;-73
2020/12/17 12:31:59;;;;;;;7.47;2.47;;;11.00;99.90;;;;;;5091825;28;20028;-75
2020/12/17 12:34:26;;;;;;;6.40;2.35;;;10.90;99.90;;;;;;5092930;28;20020;-74
2020/12/17 12:36:55;;;;;;;6.90;2.20;;;10.90;99.90;;;;;;5092728;28;20454;-73
2020/12/17 12:39:21;;;;;;;3.00;1.80;;;10.80;99.90;;;;;;5093802;28;20414;-74
2020/12/17 12:41:49;;;;;;;6.68;2.60;;;10.90;99.90;;;;;;5096352;28;20107;-68
2020/12/17 12:44:15;;;;;;;7.38;3.00;;;11.00;99.90;;;;;;5096591;28;20430;-69
2020/12/17 12:46:42;;;;;;;6.20;2.40;;;11.00;99.90;;;;;;5096562;28;20013;-70
2020/12/17 12:49:08;;;;;;;8.52;2.55;;;11.00;99.90;;;;;;5097470;28;20020;-70